Buoy 32543

sailwx.info

Track history (hours):
 
Tides and Currents Weather Stations Pressure Air Temp Water Temp Dewpoint Dewpoint Depression Visibility Wind Speed Wind Dir Waves Ship Positions

Zhongguoyuzheng32543

Last reported at 2017-Dec-11 13:00 UTC. Time now 2017-Dec-13 14:49 UTC.
Position N 26°27' E 134°03'.

Length 50 m; draft 3.2 m.

Type: Other ship. MMSI: 412352016.

Water temperature 24.8 ° C

Date/timePositionNaut miles runAvg speedWind from/ knotsBaromVisibWave heightAir tempDewpointWater temp
2017-Dec-11 13:00N 26°27' E 134°03'1 0.6 24.8
2017-Dec-11 12:00N 26°28' E 134°03'1 1.3 24.8
2017-Dec-11 11:00N 26°29' E 134°02'1 1.2 24.8
2017-Dec-11 10:00N 26°29' E 134°01'1 0.6 24.8
2017-Dec-11 09:00N 26°30' E 134°01'1 1.3 24.9
2017-Dec-11 08:00N 26°31' E 134°01'2 2.0 24.9
2017-Dec-11 07:00N 26°32' E 133°59'0 0.0 24.9
2017-Dec-11 06:00N 26°32' E 133°59'0 0.0 24.9
2017-Dec-11 05:00N 26°32' E 133°59'5 1.8 24.9
2017-Dec-11 02:00N 26°35' E 133°53'1 0.3 24.9
2017-Dec-11 00:00N 26°35' E 133°53'1 0.5 24.9
2017-Dec-10 23:00N 26°35' E 133°52'1 0.5 24.9
2017-Dec-10 22:00N 26°35' E 133°52'1 0.6 24.9
2017-Dec-10 21:00N 26°35' E 133°52'1 0.8 24.9
2017-Dec-10 20:00N 26°36' E 133°51'1 0.8 24.9
2017-Dec-10 19:00N 26°37' E 133°50'0 0.0 24.9
2017-Dec-10 18:00N 26°37' E 133°50'3 0.5 24.9
2017-Dec-10 12:00N 26°38' E 133°48'1 1.2 24.8
2017-Dec-10 11:00N 26°39' E 133°47'1 0.6 24.8
2017-Dec-10 10:00N 26°40' E 133°47'1 0.6 24.8
2017-Dec-10 09:00N 26°39' E 133°47'1 0.6 24.8
2017-Dec-10 08:00N 26°40' E 133°47'2 2.2 24.8
2017-Dec-10 07:00N 26°39' E 133°44'1 0.8 24.8
2017-Dec-10 06:00N 26°38' E 133°44'0 0.0 24.8
2017-Dec-10 05:00N 26°38' E 133°44'1 0.2 24.8
2017-Dec-10 00:00N 26°37' E 133°44'1 1.3 24.8
2017-Dec-09 23:00N 26°36' E 133°43'1 0.5 24.8
2017-Dec-09 22:00N 26°36' E 133°44'1 0.5 24.7
2017-Dec-09 21:00N 26°36' E 133°44'1 0.8 24.7
2017-Dec-09 20:00N 26°35' E 133°45'1 0.8 24.6
2017-Dec-09 19:00N 26°36' E 133°44'0 0.0 24.6
2017-Dec-09 18:00N 26°36' E 133°44'3 0.6 24.6
2017-Dec-09 13:00N 26°38' E 133°46'1 0.6 24.6
2017-Dec-09 12:00N 26°39' E 133°46'2 1.9 24.5
2017-Dec-09 11:00N 26°41' E 133°46'0 0.0 24.4
2017-Dec-09 10:00N 26°41' E 133°46'1 0.6 24.4
2017-Dec-09 09:00N 26°41' E 133°46'0 0.0 24.4
2017-Dec-09 08:00N 26°41' E 133°46'2 1.0 24.4
2017-Dec-09 06:00N 26°43' E 133°44'0 0.0 24.3
2017-Dec-09 05:00N 26°43' E 133°44'4 1.0 23.8
2017-Dec-09 01:00N 26°46' E 133°41'0 0.0 23.9
2017-Dec-09 00:00N 26°46' E 133°41'1 1.3 23.9
2017-Dec-08 23:00N 26°47' E 133°40'0 0.0 23.9
2017-Dec-08 22:00N 26°47' E 133°40'2 0.9 23.9
2017-Dec-08 20:00N 26°49' E 133°41'0 0.0 23.9
2017-Dec-08 19:00N 26°49' E 133°41'0 0.0 23.9
2017-Dec-08 18:00N 26°49' E 133°41'4 0.9 23.9
2017-Dec-08 13:00N 26°53' E 133°39'1 1.3 23.9
2017-Dec-08 12:00N 26°54' E 133°40'3 2.6 23.9
2017-Dec-08 11:00N 26°56' E 133°38'0 0.0 24.0
2017-Dec-08 10:00N 26°56' E 133°38'4 3.6 24.1
2017-Dec-08 09:00N 27°00' E 133°38'0 0.0 24.1
2017-Dec-08 08:00N 27°00' E 133°38'0 0.0 24.1
2017-Dec-08 07:00N 27°00' E 133°38'7 1.2 24.2
2017-Dec-08 01:00N 27°05' E 133°32'1 1.2 24.1
2017-Dec-08 00:00N 27°05' E 133°31'1 1.2 24.1
2017-Dec-07 23:00N 27°06' E 133°29'1 0.8 24.1
2017-Dec-07 22:00N 27°07' E 133°29'1 0.6 24.0
2017-Dec-07 21:00N 27°06' E 133°29'3 2.7 24.3
2017-Dec-07 20:00N 27°06' E 133°26'0 0.0 24.4
2017-Dec-07 19:00N 27°06' E 133°26'1 0.6 24.4
2017-Dec-07 18:00N 27°05' E 133°26'0 0.0 24.4
2017-Dec-07 17:00N 27°05' E 133°26'4 0.9 24.4
2017-Dec-07 12:00N 27°02' E 133°22'1 0.8 24.4
2017-Dec-07 11:00N 27°02' E 133°23'1 1.2 24.4
2017-Dec-07 10:00N 27°01' E 133°24'1 1.1 24.4
2017-Dec-07 09:00N 27°01' E 133°25'1 0.5 24.4
2017-Dec-07 08:00N 27°01' E 133°26'0 0.0 24.4
2017-Dec-07 07:00N 27°01' E 133°26'1 0.8 24.4
2017-Dec-07 06:00N 27°02' E 133°26'0 0.0 24.4
2017-Dec-07 05:00N 27°02' E 133°26'0 0.0 24.5
2017-Dec-07 04:00N 27°02' E 133°26'1 0.3 24.4
2017-Dec-07 01:00N 27°01' E 133°27'1 0.8 24.4
2017-Dec-07 00:00N 27°02' E 133°28'1 1.2 24.4
2017-Dec-06 23:00N 27°01' E 133°29'1 0.8 24.4
2017-Dec-06 22:00N 27°02' E 133°28'1 1.2 24.4
2017-Dec-06 21:00N 27°02' E 133°29'1 1.1 24.4
2017-Dec-06 20:00N 27°02' E 133°31'1 0.8 24.4
2017-Dec-06 19:00N 27°03' E 133°30'1 1.2 24.4
2017-Dec-06 18:00N 27°04' E 133°30'0 0.0 24.4
2017-Dec-06 17:00N 27°04' E 133°30'3 0.7 24.4
2017-Dec-06 13:00N 27°05' E 133°27'1 0.5 24.5
2017-Dec-06 12:00N 27°05' E 133°28'0 0.0 24.5
2017-Dec-06 11:00N 27°05' E 133°28'1 0.5 24.4
2017-Dec-06 10:00N 27°05' E 133°28'0 0.0 24.4
2017-Dec-06 09:00N 27°05' E 133°28'1 0.5 24.4
2017-Dec-06 08:00N 27°05' E 133°29'1 1.2 24.6
2017-Dec-06 07:00N 27°06' E 133°30'1 0.8 24.6
2017-Dec-06 06:00N 27°07' E 133°31'1 0.6 24.6
2017-Dec-06 05:00N 27°07' E 133°31'0 0.0 24.6
2017-Dec-06 04:00N 27°07' E 133°31'1 0.4 24.6
2017-Dec-06 02:00N 27°08' E 133°31'1 0.6 24.4
2017-Dec-06 00:00N 27°07' E 133°32'1 1.2 24.4
2017-Dec-05 23:00N 27°08' E 133°31'1 0.5 24.3
2017-Dec-05 22:00N 27°08' E 133°32'0 0.0 24.3
2017-Dec-05 21:00N 27°08' E 133°32'1 1.2 24.3
2017-Dec-05 20:00N 27°09' E 133°32'1 1.2 24.3
2017-Dec-05 19:00N 27°10' E 133°32'0 0.0 24.3
2017-Dec-05 18:00N 27°10' E 133°32'0 0.0 24.3
2017-Dec-05 17:00N 27°10' E 133°32'5 1.2 24.4
2017-Dec-05 13:00N 27°13' E 133°27'1 0.8 24.3
2017-Dec-05 12:00N 27°13' E 133°28'2 1.7 24.3
2017-Dec-05 11:00N 27°14' E 133°26'0 0.0 24.3
2017-Dec-05 10:00N 27°14' E 133°26'0 0.0 24.3
2017-Dec-05 09:00N 27°14' E 133°26'1 1.3 24.2
2017-Dec-05 08:00N 27°15' E 133°25'1 1.2 24.1
2017-Dec-05 07:00N 27°16' E 133°25'0 0.0 23.8
2017-Dec-05 06:00N 27°16' E 133°25'0 0.0 23.8
2017-Dec-05 05:00N 27°16' E 133°25'0 0.0 23.7
2017-Dec-05 04:00N 27°16' E 133°25'4 1.3 23.6
2017-Dec-05 01:00N 27°19' E 133°22'0 0.0 23.4
2017-Dec-05 00:00N 27°19' E 133°22'1 0.5 23.4
2017-Dec-04 23:00N 27°19' E 133°22'0 0.0 23.4
2017-Dec-04 22:00N 27°19' E 133°22'2 1.7 23.4
2017-Dec-04 21:00N 27°20' E 133°23'1 1.3 23.4
2017-Dec-04 20:00N 27°21' E 133°24'2 1.9 23.4
2017-Dec-04 19:00N 27°23' E 133°25'0 0.0 23.5
2017-Dec-04 18:00N 27°23' E 133°25'0 0.0 23.5
2017-Dec-04 17:00N 27°23' E 133°25'7 1.8 23.6
2017-Dec-04 13:00N 27°30' E 133°25'3 3.0 23.6
2017-Dec-04 12:00N 27°33' E 133°26'2 1.6 23.6
2017-Dec-04 11:00N 27°34' E 133°25'1 1.2 23.6
2017-Dec-04 10:00N 27°35' E 133°25'2 1.9 23.6
2017-Dec-04 09:00N 27°37' E 133°24'1 0.6 23.6
2017-Dec-04 08:00N 27°38' E 133°24'2 1.8 23.6
2017-Dec-04 07:00N 27°40' E 133°24'0 0.0 23.6
2017-Dec-04 06:00N 27°40' E 133°24'0 0.0 23.6
2017-Dec-04 05:00N 27°40' E 133°24'4 0.9 23.7
2017-Dec-04 01:00N 27°43' E 133°23'1 0.8 23.7
2017-Dec-04 00:00N 27°44' E 133°23'1 1.3 23.7
2017-Dec-03 23:00N 27°45' E 133°23'1 0.8 23.7
2017-Dec-03 22:00N 27°46' E 133°23'1 1.3 23.7
2017-Dec-03 21:00N 27°47' E 133°23'1 0.8 23.7
2017-Dec-03 20:00N 27°46' E 133°23'1 1.3 23.6
2017-Dec-03 19:00N 27°47' E 133°24'1 0.5 23.6
2017-Dec-03 18:00N 27°47' E 133°23'0 0.0 23.6
2017-Dec-03 17:00N 27°47' E 133°23'3 0.7 23.6
2017-Dec-03 13:00N 27°50' E 133°25'1 0.5 23.6
2017-Dec-03 12:00N 27°50' E 133°26'1 0.8 23.7
2017-Dec-03 11:00N 27°50' E 133°26'1 0.8 23.7
2017-Dec-03 10:00N 27°51' E 133°27'2 2.4 23.7
2017-Dec-03 09:00N 27°52' E 133°29'1 0.5 23.7
2017-Dec-03 08:00N 27°52' E 133°30'3 3.2 23.7
2017-Dec-03 07:00N 27°55' E 133°32'0 0.0 23.6
2017-Dec-03 06:00N 27°55' E 133°32'0 0.0 23.6
2017-Dec-03 05:00N 27°55' E 133°32'8 2.0 23.6
2017-Dec-03 01:00N 28°02' E 133°37'1 1.3 23.7
2017-Dec-03 00:00N 28°03' E 133°37'1 0.8 23.8
2017-Dec-02 23:00N 28°04' E 133°38'2 1.8 23.8
2017-Dec-02 22:00N 28°05' E 133°38'1 0.8 23.6
2017-Dec-02 21:00N 28°06' E 133°38'3 2.6 23.6
2017-Dec-02 20:00N 28°08' E 133°40'0 0.0 23.6
2017-Dec-02 18:00N 28°08' E 133°40'6 1.2 23.6
2017-Dec-02 13:00N 28°13' E 133°44'1 1.2 23.7
2017-Dec-02 12:00N 28°13' E 133°46'1 0.5 23.7
2017-Dec-02 11:00N 28°13' E 133°46'1 0.5 23.7
2017-Dec-02 10:00N 28°13' E 133°47'0 0.0 23.7
2017-Dec-02 09:00N 28°13' E 133°47'1 0.8 23.7
2017-Dec-02 08:00N 28°14' E 133°47'2 1.2 23.7
2017-Dec-02 06:00N 28°15' E 133°50'0 0.0 23.7
2017-Dec-02 05:00N 28°15' E 133°50'5 1.6 23.8
2017-Dec-02 02:00N 28°18' E 133°54'0 0.0 23.9
2017-Dec-02 01:00N 28°18' E 133°54'1 1.2 23.9
2017-Dec-02 00:00N 28°19' E 133°55'2 1.6 24.0
2017-Dec-01 23:00N 28°20' E 133°56'0 0.0 24.0
2017-Dec-01 22:00N 28°20' E 133°56'1 0.6 23.9
2017-Dec-01 21:00N 28°20' E 133°56'2 2.4 23.9
2017-Dec-01 20:00N 28°22' E 133°58'0 0.0 23.8
2017-Dec-01 19:00N 28°22' E 133°58'0 0.0 23.8
2017-Dec-01 18:00N 28°22' E 133°58'   23.8
Track history (hours):
 
Tides and Currents Weather Stations Pressure Air Temp Water Temp Dewpoint Dewpoint Depression Visibility Wind Speed Wind Dir Waves Ship Positions

Zhongguoyuzheng32543

Last reported at 2017-Dec-11 13:00 UTC. Time now 2017-Dec-13 14:49 UTC.
Position N 26°27' E 134°03'.

Length 50 m; draft 3.2 m.

Type: Other ship. MMSI: 412352016.

Water temperature 24.8 ° C

Date/timePositionNaut miles runAvg speedWind from/ knotsBaromVisibWave heightAir tempDewpointWater temp
2017-Dec-11 13:00N 26°27' E 134°03'1 0.6 24.8
2017-Dec-11 12:00N 26°28' E 134°03'1 1.3 24.8
2017-Dec-11 11:00N 26°29' E 134°02'1 1.2 24.8
2017-Dec-11 10:00N 26°29' E 134°01'1 0.6 24.8
2017-Dec-11 09:00N 26°30' E 134°01'1 1.3 24.9
2017-Dec-11 08:00N 26°31' E 134°01'2 2.0 24.9
2017-Dec-11 07:00N 26°32' E 133°59'0 0.0 24.9
2017-Dec-11 06:00N 26°32' E 133°59'0 0.0 24.9
2017-Dec-11 05:00N 26°32' E 133°59'5 1.8 24.9
2017-Dec-11 02:00N 26°35' E 133°53'1 0.3 24.9
2017-Dec-11 00:00N 26°35' E 133°53'1 0.5 24.9
2017-Dec-10 23:00N 26°35' E 133°52'1 0.5 24.9
2017-Dec-10 22:00N 26°35' E 133°52'1 0.6 24.9
2017-Dec-10 21:00N 26°35' E 133°52'1 0.8 24.9
2017-Dec-10 20:00N 26°36' E 133°51'1 0.8 24.9
2017-Dec-10 19:00N 26°37' E 133°50'0 0.0 24.9
2017-Dec-10 18:00N 26°37' E 133°50'3 0.5 24.9
2017-Dec-10 12:00N 26°38' E 133°48'1 1.2 24.8
2017-Dec-10 11:00N 26°39' E 133°47'1 0.6 24.8
2017-Dec-10 10:00N 26°40' E 133°47'1 0.6 24.8
2017-Dec-10 09:00N 26°39' E 133°47'1 0.6 24.8
2017-Dec-10 08:00N 26°40' E 133°47'2 2.2 24.8
2017-Dec-10 07:00N 26°39' E 133°44'1 0.8 24.8
2017-Dec-10 06:00N 26°38' E 133°44'0 0.0 24.8
2017-Dec-10 05:00N 26°38' E 133°44'1 0.2 24.8
2017-Dec-10 00:00N 26°37' E 133°44'1 1.3 24.8
2017-Dec-09 23:00N 26°36' E 133°43'1 0.5 24.8
2017-Dec-09 22:00N 26°36' E 133°44'1 0.5 24.7
2017-Dec-09 21:00N 26°36' E 133°44'1 0.8 24.7
2017-Dec-09 20:00N 26°35' E 133°45'1 0.8 24.6
2017-Dec-09 19:00N 26°36' E 133°44'0 0.0 24.6
2017-Dec-09 18:00N 26°36' E 133°44'3 0.6 24.6
2017-Dec-09 13:00N 26°38' E 133°46'1 0.6 24.6
2017-Dec-09 12:00N 26°39' E 133°46'2 1.9 24.5
2017-Dec-09 11:00N 26°41' E 133°46'0 0.0 24.4
2017-Dec-09 10:00N 26°41' E 133°46'1 0.6 24.4
2017-Dec-09 09:00N 26°41' E 133°46'0 0.0 24.4
2017-Dec-09 08:00N 26°41' E 133°46'2 1.0 24.4
2017-Dec-09 06:00N 26°43' E 133°44'0 0.0 24.3
2017-Dec-09 05:00N 26°43' E 133°44'4 1.0 23.8
2017-Dec-09 01:00N 26°46' E 133°41'0 0.0 23.9
2017-Dec-09 00:00N 26°46' E 133°41'1 1.3 23.9
2017-Dec-08 23:00N 26°47' E 133°40'0 0.0 23.9
2017-Dec-08 22:00N 26°47' E 133°40'2 0.9 23.9
2017-Dec-08 20:00N 26°49' E 133°41'0 0.0 23.9
2017-Dec-08 19:00N 26°49' E 133°41'0 0.0 23.9
2017-Dec-08 18:00N 26°49' E 133°41'4 0.9 23.9
2017-Dec-08 13:00N 26°53' E 133°39'1 1.3 23.9
2017-Dec-08 12:00N 26°54' E 133°40'3 2.6 23.9
2017-Dec-08 11:00N 26°56' E 133°38'0 0.0 24.0
2017-Dec-08 10:00N 26°56' E 133°38'4 3.6 24.1
2017-Dec-08 09:00N 27°00' E 133°38'0 0.0 24.1
2017-Dec-08 08:00N 27°00' E 133°38'0 0.0 24.1
2017-Dec-08 07:00N 27°00' E 133°38'7 1.2 24.2
2017-Dec-08 01:00N 27°05' E 133°32'1 1.2 24.1
2017-Dec-08 00:00N 27°05' E 133°31'1 1.2 24.1
2017-Dec-07 23:00N 27°06' E 133°29'1 0.8 24.1
2017-Dec-07 22:00N 27°07' E 133°29'1 0.6 24.0
2017-Dec-07 21:00N 27°06' E 133°29'3 2.7 24.3
2017-Dec-07 20:00N 27°06' E 133°26'0 0.0 24.4
2017-Dec-07 19:00N 27°06' E 133°26'1 0.6 24.4
2017-Dec-07 18:00N 27°05' E 133°26'0 0.0 24.4
2017-Dec-07 17:00N 27°05' E 133°26'4 0.9 24.4
2017-Dec-07 12:00N 27°02' E 133°22'1 0.8 24.4
2017-Dec-07 11:00N 27°02' E 133°23'1 1.2 24.4
2017-Dec-07 10:00N 27°01' E 133°24'1 1.1 24.4
2017-Dec-07 09:00N 27°01' E 133°25'1 0.5 24.4
2017-Dec-07 08:00N 27°01' E 133°26'0 0.0 24.4
2017-Dec-07 07:00N 27°01' E 133°26'1 0.8 24.4
2017-Dec-07 06:00N 27°02' E 133°26'0 0.0 24.4
2017-Dec-07 05:00N 27°02' E 133°26'0 0.0 24.5
2017-Dec-07 04:00N 27°02' E 133°26'1 0.3 24.4
2017-Dec-07 01:00N 27°01' E 133°27'1 0.8 24.4
2017-Dec-07 00:00N 27°02' E 133°28'1 1.2 24.4
2017-Dec-06 23:00N 27°01' E 133°29'1 0.8 24.4
2017-Dec-06 22:00N 27°02' E 133°28'1 1.2 24.4
2017-Dec-06 21:00N 27°02' E 133°29'1 1.1 24.4
2017-Dec-06 20:00N 27°02' E 133°31'1 0.8 24.4
2017-Dec-06 19:00N 27°03' E 133°30'1 1.2 24.4
2017-Dec-06 18:00N 27°04' E 133°30'0 0.0 24.4
2017-Dec-06 17:00N 27°04' E 133°30'3 0.7 24.4
2017-Dec-06 13:00N 27°05' E 133°27'1 0.5 24.5
2017-Dec-06 12:00N 27°05' E 133°28'0 0.0 24.5
2017-Dec-06 11:00N 27°05' E 133°28'1 0.5 24.4
2017-Dec-06 10:00N 27°05' E 133°28'0 0.0 24.4
2017-Dec-06 09:00N 27°05' E 133°28'1 0.5 24.4
2017-Dec-06 08:00N 27°05' E 133°29'1 1.2 24.6
2017-Dec-06 07:00N 27°06' E 133°30'1 0.8 24.6
2017-Dec-06 06:00N 27°07' E 133°31'1 0.6 24.6
2017-Dec-06 05:00N 27°07' E 133°31'0 0.0 24.6
2017-Dec-06 04:00N 27°07' E 133°31'1 0.4 24.6
2017-Dec-06 02:00N 27°08' E 133°31'1 0.6 24.4
2017-Dec-06 00:00N 27°07' E 133°32'1 1.2 24.4
2017-Dec-05 23:00N 27°08' E 133°31'1 0.5 24.3
2017-Dec-05 22:00N 27°08' E 133°32'0 0.0 24.3
2017-Dec-05 21:00N 27°08' E 133°32'1 1.2 24.3
2017-Dec-05 20:00N 27°09' E 133°32'1 1.2 24.3
2017-Dec-05 19:00N 27°10' E 133°32'0 0.0 24.3
2017-Dec-05 18:00N 27°10' E 133°32'0 0.0 24.3
2017-Dec-05 17:00N 27°10' E 133°32'5 1.2 24.4
2017-Dec-05 13:00N 27°13' E 133°27'1 0.8 24.3
2017-Dec-05 12:00N 27°13' E 133°28'2 1.7 24.3
2017-Dec-05 11:00N 27°14' E 133°26'0 0.0 24.3
2017-Dec-05 10:00N 27°14' E 133°26'0 0.0 24.3
2017-Dec-05 09:00N 27°14' E 133°26'1 1.3 24.2
2017-Dec-05 08:00N 27°15' E 133°25'1 1.2 24.1
2017-Dec-05 07:00N 27°16' E 133°25'0 0.0 23.8
2017-Dec-05 06:00N 27°16' E 133°25'0 0.0 23.8
2017-Dec-05 05:00N 27°16' E 133°25'0 0.0 23.7
2017-Dec-05 04:00N 27°16' E 133°25'4 1.3 23.6
2017-Dec-05 01:00N 27°19' E 133°22'0 0.0 23.4
2017-Dec-05 00:00N 27°19' E 133°22'1 0.5 23.4
2017-Dec-04 23:00N 27°19' E 133°22'0 0.0 23.4
2017-Dec-04 22:00N 27°19' E 133°22'2 1.7 23.4
2017-Dec-04 21:00N 27°20' E 133°23'1 1.3 23.4
2017-Dec-04 20:00N 27°21' E 133°24'2 1.9 23.4
2017-Dec-04 19:00N 27°23' E 133°25'0 0.0 23.5
2017-Dec-04 18:00N 27°23' E 133°25'0 0.0 23.5
2017-Dec-04 17:00N 27°23' E 133°25'7 1.8 23.6
2017-Dec-04 13:00N 27°30' E 133°25'3 3.0 23.6
2017-Dec-04 12:00N 27°33' E 133°26'2 1.6 23.6
2017-Dec-04 11:00N 27°34' E 133°25'1 1.2 23.6
2017-Dec-04 10:00N 27°35' E 133°25'2 1.9 23.6
2017-Dec-04 09:00N 27°37' E 133°24'1 0.6 23.6
2017-Dec-04 08:00N 27°38' E 133°24'2 1.8 23.6
2017-Dec-04 07:00N 27°40' E 133°24'0 0.0 23.6
2017-Dec-04 06:00N 27°40' E 133°24'0 0.0 23.6
2017-Dec-04 05:00N 27°40' E 133°24'4 0.9 23.7
2017-Dec-04 01:00N 27°43' E 133°23'1 0.8 23.7
2017-Dec-04 00:00N 27°44' E 133°23'1 1.3 23.7
2017-Dec-03 23:00N 27°45' E 133°23'1 0.8 23.7
2017-Dec-03 22:00N 27°46' E 133°23'1 1.3 23.7
2017-Dec-03 21:00N 27°47' E 133°23'1 0.8 23.7
2017-Dec-03 20:00N 27°46' E 133°23'1 1.3 23.6
2017-Dec-03 19:00N 27°47' E 133°24'1 0.5 23.6
2017-Dec-03 18:00N 27°47' E 133°23'0 0.0 23.6
2017-Dec-03 17:00N 27°47' E 133°23'3 0.7 23.6
2017-Dec-03 13:00N 27°50' E 133°25'1 0.5 23.6
2017-Dec-03 12:00N 27°50' E 133°26'1 0.8 23.7
2017-Dec-03 11:00N 27°50' E 133°26'1 0.8 23.7
2017-Dec-03 10:00N 27°51' E 133°27'2 2.4 23.7
2017-Dec-03 09:00N 27°52' E 133°29'1 0.5 23.7
2017-Dec-03 08:00N 27°52' E 133°30'3 3.2 23.7
2017-Dec-03 07:00N 27°55' E 133°32'0 0.0 23.6
2017-Dec-03 06:00N 27°55' E 133°32'0 0.0 23.6
2017-Dec-03 05:00N 27°55' E 133°32'8 2.0 23.6
2017-Dec-03 01:00N 28°02' E 133°37'1 1.3 23.7
2017-Dec-03 00:00N 28°03' E 133°37'1 0.8 23.8
2017-Dec-02 23:00N 28°04' E 133°38'2 1.8 23.8
2017-Dec-02 22:00N 28°05' E 133°38'1 0.8 23.6
2017-Dec-02 21:00N 28°06' E 133°38'3 2.6 23.6
2017-Dec-02 20:00N 28°08' E 133°40'0 0.0 23.6
2017-Dec-02 18:00N 28°08' E 133°40'6 1.2 23.6
2017-Dec-02 13:00N 28°13' E 133°44'1 1.2 23.7
2017-Dec-02 12:00N 28°13' E 133°46'1 0.5 23.7
2017-Dec-02 11:00N 28°13' E 133°46'1 0.5 23.7
2017-Dec-02 10:00N 28°13' E 133°47'0 0.0 23.7
2017-Dec-02 09:00N 28°13' E 133°47'1 0.8 23.7
2017-Dec-02 08:00N 28°14' E 133°47'2 1.2 23.7
2017-Dec-02 06:00N 28°15' E 133°50'0 0.0 23.7
2017-Dec-02 05:00N 28°15' E 133°50'5 1.6 23.8
2017-Dec-02 02:00N 28°18' E 133°54'0 0.0 23.9
2017-Dec-02 01:00N 28°18' E 133°54'1 1.2 23.9
2017-Dec-02 00:00N 28°19' E 133°55'2 1.6 24.0
2017-Dec-01 23:00N 28°20' E 133°56'0 0.0 24.0
2017-Dec-01 22:00N 28°20' E 133°56'1 0.6 23.9
2017-Dec-01 21:00N 28°20' E 133°56'2 2.4 23.9
2017-Dec-01 20:00N 28°22' E 133°58'0 0.0 23.8
2017-Dec-01 19:00N 28°22' E 133°58'0 0.0 23.8
2017-Dec-01 18:00N 28°22' E 133°58'   23.8

Dump ship's entire track history